KFOT Airport Information

Runway Information
Runway 11 Length 4005 ft width 100 ft
Elevation 340 ft Threshold 0 ft Heading 127
Runway 29 Length 4005 ft Width 100 ft
Elevation 392 ft Threshold 0 ft Heading 307
Airport Frequencies
Type CNTR Name SEATTLE CN Frequency 124.85 MHZ
Type CTAF Name CTAF Frequency 122.9 MHZ
Type RDO Name OAKLAND RD Frequency 122.3 MHZ
Airport Navaids
Airport Weather Information & NOTAM
ADDS - METARS form results

(0814 UTC 15 November 2018)
Data provider http://aviationweather.gov/metar/data/
 
METAR text: KFOT 150755Z AUTO 12005KT 10SM CLR 07/01 A3028 RMK AO1
Conditions at: KFOT (FORTUNA , CA, US) observed 0755 UTC 15 November 2018
Temperature: 7.0°C (45°F)
Dewpoint: 1.0°C (34°F) [RH = 66%]
Pressure (altimeter): 30.28 inches Hg (1025.5 mb)
Winds: from the ESE (120 degrees) at 6 MPH (5 knots; 2.6 m/s)
Visibility: 10 or more miles (16+ km)
Ceiling: at least 12,000 feet AGL
Clouds: sky clear below 12,000 feet AGL
Weather: automated observation with no human augmentation;
there may or may not be significant weather present at this time

METAR text: KFOT 150735Z AUTO 12006KT 10SM CLR 07/02 A3029 RMK AO1
Conditions at: KFOT (FORTUNA , CA, US) observed 0735 UTC 15 November 2018
Temperature: 7.0°C (45°F)
Dewpoint: 2.0°C (36°F) [RH = 70%]
Pressure (altimeter): 30.29 inches Hg (1025.8 mb)
Winds: from the ESE (120 degrees) at 7 MPH (6 knots; 3.1 m/s)
Visibility: 10 or more miles (16+ km)
Ceiling: at least 12,000 feet AGL
Clouds: sky clear below 12,000 feet AGL
Weather: automated observation with no human augmentation;
there may or may not be significant weather present at this time

METAR text: KFOT 150715Z AUTO 12006KT 10SM CLR 06/02 A3029 RMK AO1
Conditions at: KFOT (FORTUNA , CA, US) observed 0715 UTC 15 November 2018
Temperature: 6.0°C (43°F)
Dewpoint: 2.0°C (36°F) [RH = 75%]
Pressure (altimeter): 30.29 inches Hg (1025.8 mb)
Winds: from the ESE (120 degrees) at 7 MPH (6 knots; 3.1 m/s)
Visibility: 10 or more miles (16+ km)
Ceiling: at least 12,000 feet AGL
Clouds: sky clear below 12,000 feet AGL
Weather: automated observation with no human augmentation;
there may or may not be significant weather present at this time